Time;durP1;ratioP1;P1;durP2;ratioP2;P2;SDS_P1;SDS_P2;PMS_P1;PMS_P2;Temp;Humidity;BMP_temperature;BMP_pressure;BME280_temperature;BME280_humidity;BME280_pressure;Samples;Min_cycle;Max_cycle;Signal;HPM_P1;HPM_P2
2022/08/25 00:01:38;;;;;;;4.00;1.92;;;27.30;61.60;;;;;;5043812;28;20509;-88
2022/08/25 00:04:09;;;;;;;2.08;1.70;;;27.30;61.50;;;;;;5048848;28;20476;-89
2022/08/25 00:06:35;;;;;;;4.82;1.80;;;27.30;61.60;;;;;;5046359;28;20041;-90
2022/08/25 00:09:01;;;;;;;2.78;1.75;;;27.30;61.70;;;;;;5053359;28;20025;-88
2022/08/25 00:11:30;;;;;;;6.07;2.65;;;27.20;61.70;;;;;;5054005;28;20036;-85
2022/08/25 00:13:59;;;;;;;4.10;2.55;;;27.20;62.00;;;;;;5046326;28;20083;-86
2022/08/25 00:16:26;;;;;;;4.47;2.10;;;27.20;62.10;;;;;;5055961;28;20036;-90
2022/08/25 00:18:57;;;;;;;1.98;1.73;;;27.20;62.40;;;;;;5055649;28;20279;-87
2022/08/25 00:21:24;;;;;;;3.13;1.83;;;27.20;62.60;;;;;;5055830;28;20048;-84
2022/08/25 00:23:50;;;;;;;3.15;2.10;;;27.20;62.70;;;;;;5049846;28;20021;-83
2022/08/25 00:26:16;;;;;;;3.17;1.83;;;27.20;62.90;;;;;;5054209;28;20036;-87
2022/08/25 00:28:43;;;;;;;4.82;2.00;;;27.20;62.80;;;;;;5052540;28;20032;-86
2022/08/25 00:31:16;;;;;;;2.38;1.60;;;27.20;63.00;;;;;;5054249;28;20021;-88
2022/08/25 00:33:44;;;;;;;2.85;1.73;;;27.20;63.00;;;;;;5055508;28;20067;-91
2022/08/25 00:36:11;;;;;;;1.85;1.65;;;27.20;63.30;;;;;;5053467;28;20053;-90
2022/08/25 00:38:38;;;;;;;6.57;2.00;;;27.20;63.50;;;;;;5049796;28;20025;-90
2022/08/25 00:41:06;;;;;;;2.15;1.92;;;27.20;63.70;;;;;;5054354;28;20518;-90
2022/08/25 00:43:41;;;;;;;3.00;2.03;;;27.20;63.90;;;;;;5053782;28;20049;-88
2022/08/25 00:46:12;;;;;;;2.58;1.75;;;27.10;64.10;;;;;;5054454;28;20029;-89
2022/08/25 00:48:41;;;;;;;1.90;1.63;;;27.10;64.30;;;;;;5056271;28;20052;-90
2022/08/25 00:51:08;;;;;;;2.58;1.73;;;27.10;64.40;;;;;;5053269;28;20102;-89
2022/08/25 00:53:34;;;;;;;2.47;1.83;;;27.10;64.60;;;;;;5051892;28;20055;-88
2022/08/25 00:56:01;;;;;;;5.35;2.20;;;27.10;65.10;;;;;;5048265;28;20021;-89
2022/08/25 00:58:29;;;;;;;3.58;1.85;;;27.10;65.50;;;;;;5041129;28;20029;-87
2022/08/25 01:00:56;;;;;;;1.90;1.60;;;27.10;65.50;;;;;;5052954;28;20033;-88
2022/08/25 01:03:25;;;;;;;3.10;1.75;;;27.10;65.50;;;;;;5054282;28;20055;-87
2022/08/25 01:05:52;;;;;;;3.50;1.80;;;27.10;65.50;;;;;;5055081;28;20042;-86
2022/08/25 01:08:21;;;;;;;4.60;1.80;;;27.00;65.30;;;;;;5052321;28;20036;-86
2022/08/25 01:10:48;;;;;;;4.40;2.05;;;26.90;65.10;;;;;;5046140;28;20432;-87
2022/08/25 01:13:30;;;;;;;3.58;1.80;;;26.90;65.20;;;;;;5050691;28;20470;-87
2022/08/25 01:15:57;;;;;;;3.47;2.15;;;26.80;65.40;;;;;;5045649;28;20029;-87
2022/08/25 01:18:26;;;;;;;3.65;1.60;;;26.80;65.30;;;;;;5054113;28;20052;-87
2022/08/25 01:20:56;;;;;;;1.77;1.67;;;26.80;65.70;;;;;;5049428;28;20028;-87
2022/08/25 01:23:23;;;;;;;3.72;1.80;;;26.90;66.10;;;;;;5053098;28;20064;-87
2022/08/25 01:25:57;;;;;;;3.05;1.60;;;26.90;66.30;;;;;;5054005;28;20053;-85
2022/08/25 01:28:23;;;;;;;2.50;1.70;;;26.90;66.50;;;;;;5043727;28;20086;-85
2022/08/25 01:30:49;;;;;;;3.97;2.00;;;26.90;66.50;;;;;;5045429;28;20041;-82
2022/08/25 01:33:18;;;;;;;4.63;2.08;;;26.90;66.40;;;;;;5038896;28;20040;-81
2022/08/25 01:35:44;;;;;;;3.58;2.17;;;26.90;66.40;;;;;;5041339;28;20045;-83
2022/08/25 01:38:09;;;;;;;3.03;2.08;;;26.90;66.30;;;;;;5037837;28;20071;-83
2022/08/25 01:40:37;;;;;;;3.25;2.08;;;26.90;66.60;;;;;;5050142;28;20029;-83
2022/08/25 01:43:10;;;;;;;2.13;1.63;;;26.90;66.80;;;;;;5053198;28;20045;-83
2022/08/25 01:45:38;;;;;;;4.13;2.00;;;26.90;66.90;;;;;;5054471;28;20056;-83
2022/08/25 01:48:06;;;;;;;2.42;1.85;;;26.90;67.20;;;;;;5053848;28;20082;-90
2022/08/25 01:50:32;;;;;;;2.28;1.90;;;26.80;67.50;;;;;;5053936;28;20040;-87
2022/08/25 01:53:11;;;;;;;3.10;2.10;;;26.80;67.60;;;;;;5053832;28;20048;-85
2022/08/25 01:56:00;;;;;;;2.77;2.00;;;26.80;67.50;;;;;;5037901;28;20025;-88
2022/08/25 01:58:32;;;;;;;2.25;1.77;;;26.80;67.40;;;;;;5045610;28;20115;-89
2022/08/25 02:01:01;;;;;;;2.95;2.33;;;26.70;67.60;;;;;;5054592;28;20069;-89
2022/08/25 02:03:27;;;;;;;2.40;1.80;;;26.70;67.40;;;;;;5054859;28;20021;-92
2022/08/25 02:05:56;;;;;;;4.55;2.25;;;26.60;67.40;;;;;;5055342;28;20013;-89
2022/08/25 02:08:23;;;;;;;3.58;2.05;;;26.60;67.80;;;;;;5046872;28;20466;-89
2022/08/25 02:10:51;;;;;;;2.83;2.53;;;26.60;67.60;;;;;;5051877;28;20032;-85
2022/08/25 02:13:19;;;;;;;5.78;2.47;;;26.50;67.80;;;;;;5048277;28;20535;-87
2022/08/25 02:15:52;;;;;;;3.35;2.00;;;26.50;67.90;;;;;;5055355;28;20090;-92
2022/08/25 02:18:25;;;;;;;4.55;2.92;;;26.50;68.10;;;;;;5055072;28;20044;-91
2022/08/25 02:20:51;;;;;;;3.80;2.65;;;26.50;68.40;;;;;;5052100;28;20052;-92
2022/08/25 02:23:16;;;;;;;4.40;2.55;;;26.30;68.20;;;;;;5054158;28;20477;-92
2022/08/25 02:25:43;;;;;;;3.58;2.67;;;26.20;68.60;;;;;;5054720;28;20513;-90
2022/08/25 02:28:09;;;;;;;4.90;2.72;;;26.10;69.30;;;;;;5036505;28;20029;-90
2022/08/25 02:30:36;;;;;;;3.78;2.95;;;26.10;69.10;;;;;;5049096;28;20029;-88
2022/08/25 02:33:03;;;;;;;5.65;2.95;;;25.90;70.20;;;;;;5052415;28;20413;-89
2022/08/25 02:35:29;;;;;;;4.28;2.33;;;25.90;70.30;;;;;;5054839;28;20029;-90
2022/08/25 02:37:55;;;;;;;2.90;2.53;;;25.70;70.40;;;;;;5055860;28;20025;-94
2022/08/25 02:40:21;;;;;;;5.43;3.22;;;25.60;70.40;;;;;;5054247;28;20035;-93
2022/08/25 02:42:48;;;;;;;8.00;3.53;;;25.50;71.00;;;;;;5054791;28;20073;-92
2022/08/25 02:45:14;;;;;;;6.20;3.78;;;25.40;71.60;;;;;;5055594;28;20057;-93
2022/08/25 02:47:41;;;;;;;4.35;3.28;;;25.30;72.10;;;;;;5054645;28;20013;-92
2022/08/25 02:50:08;;;;;;;7.70;3.35;;;25.30;72.30;;;;;;5054274;28;20104;-92
2022/08/25 02:52:35;;;;;;;5.22;2.88;;;25.20;72.40;;;;;;5052647;28;20121;-92
2022/08/25 02:55:04;;;;;;;5.53;3.03;;;25.20;72.40;;;;;;5053611;28;20112;-91
2022/08/25 02:57:30;;;;;;;4.75;3.50;;;25.20;72.40;;;;;;5053962;28;20096;-93
2022/08/25 02:59:57;;;;;;;11.05;3.95;;;25.10;73.20;;;;;;5053437;28;20354;-93
2022/08/25 03:02:24;;;;;;;5.95;2.90;;;24.90;73.50;;;;;;5053426;28;20021;-94
2022/08/25 03:04:52;;;;;;;4.53;2.50;;;24.90;73.60;;;;;;5046443;28;20405;-93
2022/08/25 03:07:19;;;;;;;5.82;3.15;;;24.90;73.20;;;;;;5049971;28;20378;-92
2022/08/25 03:09:46;;;;;;;5.28;2.17;;;24.90;73.90;;;;;;5036552;28;20021;-92
2022/08/25 03:12:12;;;;;;;5.97;3.65;;;24.90;73.30;;;;;;5039592;28;20033;-91
2022/08/25 03:14:39;;;;;;;4.95;3.58;;;24.80;74.40;;;;;;5044429;28;20029;-92
2022/08/25 03:17:07;;;;;;;7.57;2.92;;;24.80;74.20;;;;;;5035350;28;20021;-93
2022/08/25 03:19:33;;;;;;;4.07;2.95;;;24.80;74.30;;;;;;5055317;28;20516;-95
2022/08/25 03:21:59;;;;;;;4.55;3.22;;;24.80;73.90;;;;;;5055669;28;20065;-93
2022/08/25 03:24:26;;;;;;;8.52;3.30;;;24.80;74.30;;;;;;5054774;28;20056;-94
2022/08/25 03:26:52;;;;;;;6.93;3.38;;;24.80;74.40;;;;;;5054505;28;20028;-90
2022/08/25 03:29:23;;;;;;;4.93;3.60;;;24.70;74.50;;;;;;5053389;28;20074;-90
2022/08/25 03:31:50;;;;;;;7.75;4.32;;;24.60;74.80;;;;;;5053248;28;20021;-95
2022/08/25 03:34:18;;;;;;;5.53;3.00;;;24.60;75.20;;;;;;5053876;28;20060;-92
2022/08/25 03:36:46;;;;;;;3.70;2.75;;;24.60;74.70;;;;;;5044513;28;20033;-89
2022/08/25 03:39:13;;;;;;;3.53;2.17;;;24.70;74.10;;;;;;5042372;28;20107;-91
2022/08/25 03:41:38;;;;;;;4.35;2.22;;;24.80;73.90;;;;;;5044326;28;20469;-92
2022/08/25 03:44:05;;;;;;;4.57;2.10;;;24.90;74.00;;;;;;5053166;28;20048;-88
2022/08/25 03:46:39;;;;;;;3.28;2.35;;;25.00;73.80;;;;;;5051720;28;20021;-87
2022/08/25 03:49:06;;;;;;;4.47;2.38;;;25.10;73.40;;;;;;5051572;28;20478;-89
2022/08/25 03:51:39;;;;;;;8.40;3.50;;;25.20;73.30;;;;;;5053329;28;20032;-88
2022/08/25 03:54:07;;;;;;;4.15;2.53;;;25.20;73.20;;;;;;5053153;28;20389;-87
2022/08/25 03:56:33;;;;;;;3.00;2.13;;;25.10;73.20;;;;;;5053242;28;20025;-91
2022/08/25 03:58:59;;;;;;;3.10;1.90;;;25.00;73.00;;;;;;5047363;28;20028;-91
2022/08/25 04:01:25;;;;;;;3.67;2.25;;;25.10;73.10;;;;;;5033883;28;20084;-88
2022/08/25 04:03:51;;;;;;;5.70;3.22;;;25.10;73.20;;;;;;5033997;28;20029;-92
2022/08/25 04:06:18;;;;;;;3.50;2.42;;;25.10;73.00;;;;;;5033257;28;20026;-91
2022/08/25 04:08:44;;;;;;;3.40;2.38;;;25.00;73.10;;;;;;5034857;28;20037;-92
2022/08/25 04:11:19;;;;;;;4.88;2.10;;;25.00;73.10;;;;;;5048674;28;20028;-91
2022/08/25 04:13:46;;;;;;;2.90;2.03;;;25.00;73.30;;;;;;5033899;28;20030;-93
2022/08/25 04:17:01;;;;;;;4.43;2.65;;;24.90;73.20;;;;;;5034144;28;20032;-90
2022/08/25 04:19:27;;;;;;;2.47;2.00;;;25.00;73.40;;;;;;5034700;28;20025;-91
2022/08/25 04:21:54;;;;;;;3.55;2.33;;;24.90;73.20;;;;;;5034930;28;20026;-89
2022/08/25 04:24:20;;;;;;;5.80;2.30;;;25.00;73.40;;;;;;5048603;28;20025;-90
2022/08/25 04:26:49;;;;;;;2.80;2.47;;;24.90;73.40;;;;;;5041571;28;20171;-90
2022/08/25 04:29:18;;;;;;;5.38;2.28;;;24.90;73.30;;;;;;5058163;28;20061;-92
2022/08/25 04:31:45;;;;;;;3.03;1.80;;;25.00;73.30;;;;;;5054880;28;20086;-92
2022/08/25 04:34:12;;;;;;;4.28;2.92;;;24.90;73.30;;;;;;5054443;28;20429;-92
2022/08/25 04:36:39;;;;;;;4.43;2.75;;;24.90;73.70;;;;;;5051151;28;20035;-90
2022/08/25 04:39:05;;;;;;;8.32;3.08;;;24.80;74.00;;;;;;5033971;28;20047;-89
2022/08/25 04:41:31;;;;;;;4.97;2.60;;;24.80;74.20;;;;;;5051647;28;20063;-89
2022/08/25 04:43:58;;;;;;;2.20;1.98;;;24.70;74.10;;;;;;5045471;28;20085;-92
2022/08/25 04:46:27;;;;;;;4.68;2.40;;;24.80;73.90;;;;;;5034685;28;20037;-88
2022/08/25 04:48:55;;;;;;;3.88;2.17;;;24.80;74.10;;;;;;5037515;28;20056;-88
2022/08/25 04:51:24;;;;;;;11.02;2.40;;;24.80;74.00;;;;;;5041996;28;20037;-84
2022/08/25 04:53:50;;;;;;;2.53;2.08;;;24.80;73.90;;;;;;5048321;28;20036;-84
2022/08/25 04:56:18;;;;;;;6.18;2.90;;;24.80;73.90;;;;;;5054602;28;20036;-86
2022/08/25 04:58:47;;;;;;;5.32;2.50;;;24.80;74.10;;;;;;5037972;28;20041;-88
2022/08/25 05:01:18;;;;;;;2.17;1.83;;;24.80;73.90;;;;;;5049620;28;20420;-85
2022/08/25 05:03:46;;;;;;;4.90;2.42;;;24.90;73.50;;;;;;5050495;28;20039;-87
2022/08/25 05:06:12;;;;;;;3.22;2.50;;;24.90;73.70;;;;;;5049383;28;20029;-87
2022/08/25 05:08:38;;;;;;;4.32;2.45;;;24.90;73.70;;;;;;5054153;28;20370;-87
2022/08/25 05:11:13;;;;;;;3.83;2.30;;;24.90;73.80;;;;;;5050179;28;20040;-87
2022/08/25 05:13:40;;;;;;;3.92;2.17;;;24.90;73.60;;;;;;5044959;28;20030;-87
2022/08/25 05:16:06;;;;;;;4.25;2.58;;;24.80;73.80;;;;;;5042087;28;20022;-84
2022/08/25 05:18:33;;;;;;;4.72;2.78;;;24.80;73.80;;;;;;5045737;28;20029;-85
2022/08/25 05:21:08;;;;;;;2.58;1.80;;;24.80;74.10;;;;;;5052587;28;20086;-84
2022/08/25 05:23:34;;;;;;;3.10;2.40;;;24.80;73.80;;;;;;5048599;28;20416;-84
2022/08/25 05:26:12;;;;;;;5.43;2.10;;;24.80;74.00;;;;;;5050461;28;20032;-85
2022/08/25 05:28:42;;;;;;;1.75;1.63;;;24.80;73.70;;;;;;5054050;28;20086;-85
2022/08/25 05:31:10;;;;;;;3.30;1.90;;;24.90;73.50;;;;;;5050063;28;20036;-83
2022/08/25 05:33:38;;;;;;;5.18;2.20;;;25.10;73.90;;;;;;5056802;28;20029;-84
2022/08/25 05:36:05;;;;;;;3.17;1.88;;;25.20;73.90;;;;;;5049720;28;20029;-83
2022/08/25 05:38:32;;;;;;;2.03;1.83;;;25.20;73.20;;;;;;5052360;28;20036;-89
2022/08/25 05:41:03;;;;;;;2.92;2.20;;;25.30;73.20;;;;;;5054992;28;20033;-91
2022/08/25 05:43:29;;;;;;;3.13;1.85;;;25.30;73.10;;;;;;5036109;28;20061;-89
2022/08/25 05:45:57;;;;;;;4.97;2.00;;;25.40;73.10;;;;;;5034143;28;20026;-89
2022/08/25 05:48:25;;;;;;;3.33;1.85;;;25.40;73.50;;;;;;5049413;28;20057;-89
2022/08/25 05:50:56;;;;;;;2.72;2.20;;;25.50;73.60;;;;;;5043030;28;20043;-88
2022/08/25 05:53:23;;;;;;;3.97;2.70;;;25.60;73.40;;;;;;5055084;28;20201;-88
2022/08/25 05:55:52;;;;;;;3.05;2.10;;;25.60;73.00;;;;;;5055407;28;20547;-89
2022/08/25 06:04:24;;;;;;;3.00;2.58;;;25.60;71.90;;;;;;5056883;28;20086;-91
2022/08/25 06:06:52;;;;;;;4.40;2.47;;;25.60;72.10;;;;;;5052388;28;20025;-90
2022/08/25 06:09:18;;;;;;;5.38;3.10;;;25.60;72.30;;;;;;5041046;28;20104;-89
2022/08/25 06:11:44;;;;;;;3.17;2.20;;;25.60;72.50;;;;;;5035226;28;20060;-88
2022/08/25 06:14:10;;;;;;;6.47;2.65;;;25.60;72.60;;;;;;5034809;28;20033;-88
2022/08/25 06:16:37;;;;;;;2.97;2.55;;;25.50;72.70;;;;;;5034548;28;20025;-87
2022/08/25 06:19:03;;;;;;;2.65;2.08;;;25.50;72.70;;;;;;5034376;28;20381;-87
2022/08/25 06:21:29;;;;;;;2.92;2.05;;;25.50;72.60;;;;;;5034511;28;20033;-89
2022/08/25 06:23:56;;;;;;;4.50;2.40;;;25.70;72.50;;;;;;5034856;28;20044;-89
2022/08/25 06:26:22;;;;;;;4.20;2.28;;;25.70;72.40;;;;;;5034509;28;20030;-89
2022/08/25 06:28:51;;;;;;;3.70;2.70;;;25.80;72.70;;;;;;5033470;28;20026;-88
2022/08/25 06:31:19;;;;;;;5.18;2.78;;;25.80;72.50;;;;;;5034913;28;20026;-90
2022/08/25 06:33:45;;;;;;;10.20;2.90;;;25.80;72.90;;;;;;5033233;28;20056;-89
2022/08/25 06:36:51;;;;;;;86.35;18.33;;;25.90;72.60;;;;;;5040498;28;20029;-89
2022/08/25 06:39:17;;;;;;;6.78;3.45;;;25.90;72.80;;;;;;5054470;28;20021;-89
2022/08/25 06:41:43;;;;;;;4.57;2.97;;;26.00;72.60;;;;;;5054214;28;20378;-88
2022/08/25 06:44:09;;;;;;;5.18;2.67;;;26.00;72.30;;;;;;5052756;28;20156;-88
2022/08/25 06:46:35;;;;;;;4.88;2.80;;;26.00;72.20;;;;;;5032869;28;20041;-88
2022/08/25 06:49:02;;;;;;;4.32;2.20;;;26.10;72.00;;;;;;5035452;28;20017;-89
2022/08/25 06:51:27;;;;;;;7.20;2.90;;;26.10;72.50;;;;;;5040245;28;20083;-89
2022/08/25 06:53:53;;;;;;;3.72;2.90;;;26.20;71.70;;;;;;5054207;28;20032;-87
2022/08/25 06:56:20;;;;;;;4.07;3.05;;;26.20;71.80;;;;;;5054251;28;20037;-88
2022/08/25 06:58:47;;;;;;;4.40;2.90;;;26.30;71.70;;;;;;5053964;28;20020;-89
2022/08/25 07:01:16;;;;;;;2.88;2.40;;;26.40;72.10;;;;;;5055333;28;20040;-89
2022/08/25 07:03:42;;;;;;;3.33;2.50;;;26.50;71.50;;;;;;5054014;28;20025;-89
2022/08/25 07:06:09;;;;;;;5.28;2.83;;;26.50;71.30;;;;;;5054170;28;20029;-90
2022/08/25 07:08:35;;;;;;;2.40;2.20;;;26.50;71.20;;;;;;5041799;28;20447;-89
2022/08/25 07:11:05;;;;;;;3.65;2.45;;;26.60;71.20;;;;;;5035143;28;20501;-90
2022/08/25 07:13:31;;;;;;;4.22;2.80;;;26.60;71.20;;;;;;5053583;28;20036;-90
2022/08/25 07:15:57;;;;;;;3.95;2.83;;;26.70;71.50;;;;;;5053723;28;20025;-90
2022/08/25 07:18:23;;;;;;;3.63;2.70;;;26.70;71.10;;;;;;5045246;28;20057;-90
2022/08/25 07:20:50;;;;;;;3.72;3.40;;;26.80;71.20;;;;;;5033735;28;20038;-89
2022/08/25 07:23:17;;;;;;;3.88;2.92;;;26.80;70.90;;;;;;5033754;28;20022;-89
2022/08/25 07:25:43;;;;;;;3.40;2.70;;;26.90;70.50;;;;;;5044334;28;20032;-89
2022/08/25 07:28:09;;;;;;;4.60;3.00;;;26.90;70.60;;;;;;5049885;28;20029;-89
2022/08/25 07:30:34;;;;;;;3.17;2.70;;;27.00;70.60;;;;;;5033521;28;20078;-89
2022/08/25 07:33:00;;;;;;;3.22;2.58;;;27.00;70.20;;;;;;5032611;28;20065;-89
2022/08/25 07:35:26;;;;;;;3.65;2.45;;;27.10;70.10;;;;;;5033865;28;20354;-89
2022/08/25 07:37:55;;;;;;;5.03;2.90;;;27.20;69.90;;;;;;5034122;28;20032;-90
2022/08/25 07:40:38;;;;;;;6.53;3.45;;;27.30;69.80;;;;;;5033231;28;20040;-89
2022/08/25 07:43:07;;;;;;;4.05;2.85;;;27.40;69.40;;;;;;5032449;28;20049;-93
2022/08/25 07:45:35;;;;;;;4.07;2.85;;;27.50;69.20;;;;;;5033248;28;20075;-88
2022/08/25 07:48:06;;;;;;;4.03;3.05;;;27.50;69.20;;;;;;5033317;28;20482;-89
2022/08/25 07:50:33;;;;;;;6.78;3.03;;;27.60;69.00;;;;;;5032895;28;20033;-91
2022/08/25 07:52:59;;;;;;;4.43;2.72;;;27.70;68.80;;;;;;5034420;28;20489;-88
2022/08/25 07:55:27;;;;;;;4.97;2.92;;;27.80;68.60;;;;;;5034522;28;20041;-90
2022/08/25 07:57:55;;;;;;;3.42;2.70;;;27.80;67.40;;;;;;5052308;28;20069;-90
2022/08/25 08:00:21;;;;;;;4.28;2.40;;;27.80;67.70;;;;;;5046128;28;20036;-90
2022/08/25 08:02:47;;;;;;;4.40;3.45;;;27.90;67.60;;;;;;5051704;28;20036;-90
2022/08/25 08:05:13;;;;;;;4.45;2.83;;;27.90;67.70;;;;;;5051686;28;20025;-90
2022/08/25 08:07:40;;;;;;;5.00;2.75;;;28.10;67.70;;;;;;5053072;28;20078;-90
2022/08/25 08:10:08;;;;;;;5.43;3.22;;;28.10;67.10;;;;;;5045922;28;20021;-90
2022/08/25 08:12:35;;;;;;;3.33;2.70;;;28.10;67.30;;;;;;5041194;28;20032;-89
2022/08/25 08:15:01;;;;;;;3.63;2.83;;;28.20;67.00;;;;;;5062532;28;20024;-91
2022/08/25 08:20:50;;;;;;;3.38;2.50;;;28.30;67.10;;;;;;5046826;28;20153;-91
2022/08/25 08:23:16;;;;;;;4.55;2.83;;;28.40;67.00;;;;;;5045527;28;20036;-91
2022/08/25 08:25:42;;;;;;;11.75;3.30;;;28.40;66.80;;;;;;5018685;28;20030;-91
2022/08/25 08:28:08;;;;;;;3.67;2.80;;;28.50;66.70;;;;;;5044601;28;20013;-91
2022/08/25 08:30:35;;;;;;;3.35;3.05;;;28.60;66.50;;;;;;5039679;28;20045;-90
2022/08/25 08:33:01;;;;;;;2.95;2.60;;;28.70;66.30;;;;;;5044691;28;20079;-90
2022/08/25 08:35:27;;;;;;;4.32;3.00;;;28.70;66.10;;;;;;5035195;28;20501;-91
2022/08/25 08:37:53;;;;;;;4.13;3.08;;;28.80;65.90;;;;;;5049282;28;20021;-91
2022/08/25 08:40:20;;;;;;;4.40;3.17;;;28.80;65.50;;;;;;5037230;28;20052;-90
2022/08/25 08:43:13;;;;;;;5.10;2.40;;;28.80;65.30;;;;;;5046728;28;20409;-91
2022/08/25 08:45:53;;;;;;;4.07;2.70;;;28.90;65.50;;;;;;5032659;28;20037;-90
2022/08/25 08:48:40;;;;;;;4.53;2.30;;;29.00;65.50;;;;;;5043416;28;20101;-89
2022/08/25 08:51:17;;;;;;;5.18;3.05;;;29.10;64.50;;;;;;5044899;28;20523;-90
2022/08/25 08:54:19;;;;;;;3.38;2.63;;;29.20;64.60;;;;;;5036573;28;20448;-89
2022/08/25 08:56:49;;;;;;;3.58;3.00;;;29.30;65.00;;;;;;5053627;28;20043;-91
2022/08/25 08:59:21;;;;;;;4.72;3.08;;;29.40;65.20;;;;;;5048916;28;20051;-91
2022/08/25 09:01:58;;;;;;;8.65;3.47;;;29.50;65.00;;;;;;5047855;28;20124;-89
2022/08/25 09:04:38;;;;;;;3.47;2.63;;;29.60;64.60;;;;;;5044944;28;20070;-90
2022/08/25 09:07:10;;;;;;;3.33;2.38;;;29.70;64.80;;;;;;5043213;28;20481;-92
2022/08/25 09:09:43;;;;;;;2.92;2.47;;;29.70;64.40;;;;;;5045229;28;20432;-91
2022/08/25 09:12:45;;;;;;;3.60;2.97;;;29.80;64.40;;;;;;5036973;28;20034;-91
2022/08/25 09:15:24;;;;;;;4.57;3.13;;;29.90;63.70;;;;;;5046003;28;20386;-90
2022/08/25 09:18:05;;;;;;;2.95;2.40;;;30.00;62.70;;;;;;5051995;28;20025;-89
2022/08/25 09:21:02;;;;;;;4.53;2.90;;;30.10;62.80;;;;;;5039221;28;20068;-91
2022/08/25 09:23:42;;;;;;;2.60;2.40;;;30.20;61.80;;;;;;5036793;28;20386;-91
2022/08/25 09:30:01;;;;;;;3.20;2.53;;;30.40;60.50;;;;;;5042273;28;20037;-88
2022/08/25 09:32:32;;;;;;;3.92;2.50;;;30.50;60.90;;;;;;5039796;28;20029;-89
2022/08/25 09:35:01;;;;;;;3.22;2.50;;;30.50;60.20;;;;;;5048317;28;20469;-91
2022/08/25 09:37:26;;;;;;;4.78;2.83;;;30.60;60.10;;;;;;5038386;28;20500;-90
2022/08/25 09:39:52;;;;;;;4.38;2.40;;;30.60;59.80;;;;;;5051556;28;20017;-90
2022/08/25 09:42:19;;;;;;;2.85;2.40;;;30.70;59.90;;;;;;5062652;28;20023;-90
2022/08/25 09:44:47;;;;;;;3.88;2.33;;;30.80;59.90;;;;;;5076164;28;20129;-90
2022/08/25 09:47:24;;;;;;;2.85;2.10;;;30.90;59.80;;;;;;5076244;28;20017;-91
2022/08/25 09:50:00;;;;;;;2.63;2.15;;;31.00;58.70;;;;;;5076289;28;20028;-90
2022/08/25 09:52:38;;;;;;;2.78;2.40;;;31.10;58.80;;;;;;5075076;28;20036;-91
2022/08/25 09:55:07;;;;;;;2.90;2.10;;;31.20;58.80;;;;;;5075760;28;20230;-91
2022/08/25 09:57:43;;;;;;;3.70;2.38;;;31.40;58.70;;;;;;5076097;28;20020;-90
2022/08/25 10:00:17;;;;;;;3.97;2.60;;;31.40;57.50;;;;;;5076181;28;20033;-91
2022/08/25 10:02:59;;;;;;;5.72;2.63;;;31.50;57.40;;;;;;5075578;28;20085;-91
2022/08/25 10:05:26;;;;;;;2.67;2.30;;;31.50;57.40;;;;;;5074541;28;20025;-92
2022/08/25 10:07:58;;;;;;;2.50;2.28;;;31.70;57.60;;;;;;5074258;28;20029;-91
2022/08/25 10:10:29;;;;;;;3.65;2.67;;;31.80;57.70;;;;;;5076352;28;20465;-89
2022/08/25 10:12:58;;;;;;;3.03;2.38;;;31.80;57.30;;;;;;5075433;28;20033;-91
2022/08/25 10:15:31;;;;;;;3.10;2.43;;;31.80;57.20;;;;;;5064030;28;20017;-88
2022/08/25 10:18:28;;;;;;;6.15;5.07;;;31.90;57.50;;;;;;5054440;28;20477;-90
2022/08/25 10:21:04;;;;;;;59.22;53.15;;;32.00;57.60;;;;;;5055018;28;20024;-90
2022/08/25 10:23:32;;;;;;;11.10;10.07;;;32.10;57.70;;;;;;5054295;28;20032;-91
2022/08/25 10:26:04;;;;;;;4.88;3.22;;;32.20;57.00;;;;;;5054424;28;20044;-92
2022/08/25 10:28:41;;;;;;;3.35;2.55;;;32.30;56.90;;;;;;5055270;28;20031;-92
2022/08/25 10:31:40;;;;;;;4.53;2.88;;;32.30;56.50;;;;;;5054870;28;20028;-92
2022/08/25 10:34:28;;;;;;;2.40;2.20;;;32.40;56.50;;;;;;5036212;28;20028;-93
2022/08/25 10:37:00;;;;;;;3.53;2.40;;;32.60;56.00;;;;;;5050513;28;20076;-92
2022/08/25 10:39:36;;;;;;;3.50;2.53;;;32.60;54.40;;;;;;5035159;28;20017;-92
2022/08/25 10:42:28;;;;;;;2.85;2.00;;;32.70;55.50;;;;;;5035336;28;20037;-93
2022/08/25 10:48:11;;;;;;;7.63;2.20;;;33.10;55.20;;;;;;5035145;28;20056;-92
2022/08/25 10:51:18;;;;;;;2.60;2.40;;;33.30;55.20;;;;;;5034939;28;20025;-93
2022/08/25 10:54:12;;;;;;;2.15;1.90;;;33.50;54.10;;;;;;5033958;28;20448;-93
2022/08/25 10:56:42;;;;;;;3.45;2.10;;;33.70;53.90;;;;;;5033391;28;20124;-93
2022/08/25 10:59:19;;;;;;;3.67;2.17;;;33.80;53.90;;;;;;5034869;28;20025;-93
2022/08/25 11:02:03;;;;;;;4.68;2.67;;;34.00;53.90;;;;;;5034544;28;20068;-93
2022/08/25 11:04:44;;;;;;;4.70;2.45;;;34.00;53.40;;;;;;5050126;28;20428;-90
2022/08/25 11:07:32;;;;;;;3.50;2.58;;;34.00;52.90;;;;;;5034035;28;20091;-91
2022/08/25 11:10:36;;;;;;;3.90;2.40;;;34.10;51.20;;;;;;5036504;28;20100;-91
2022/08/25 11:13:08;;;;;;;4.45;2.50;;;34.20;52.80;;;;;;5035014;28;20052;-91
2022/08/25 11:15:41;;;;;;;2.65;2.45;;;34.30;52.70;;;;;;5037493;28;20095;-92
2022/08/25 11:18:13;;;;;;;7.07;2.80;;;34.50;52.40;;;;;;5036287;28;20029;-92
2022/08/25 11:20:48;;;;;;;5.03;3.10;;;34.60;51.60;;;;;;5035844;28;20022;-92
2022/08/25 11:23:39;;;;;;;4.32;2.38;;;34.60;51.50;;;;;;5043890;28;20478;-92
2022/08/25 11:26:11;;;;;;;7.55;3.10;;;34.50;52.20;;;;;;5055591;28;20025;-92
2022/08/25 11:28:39;;;;;;;3.83;3.03;;;34.60;52.00;;;;;;5053880;28;20025;-92
2022/08/25 11:31:07;;;;;;;4.78;3.50;;;34.70;51.70;;;;;;5054711;28;20025;-92
2022/08/25 11:33:33;;;;;;;4.45;2.85;;;34.80;50.90;;;;;;5051067;28;20505;-92
2022/08/25 11:36:16;;;;;;;4.25;2.65;;;34.90;51.60;;;;;;5035202;28;20036;-94
2022/08/25 11:39:01;;;;;;;4.68;2.88;;;35.20;51.50;;;;;;5041277;28;20386;-91
2022/08/25 11:41:54;;;;;;;2.83;2.50;;;35.50;51.40;;;;;;5042169;28;20061;-90
2022/08/25 11:44:28;;;;;;;3.55;2.90;;;35.70;50.30;;;;;;5050602;28;20044;-93
2022/08/25 11:47:09;;;;;;;3.53;3.00;;;35.90;50.30;;;;;;5064521;28;20029;-96
2022/08/25 11:49:50;;;;;;;4.25;2.55;;;36.20;49.60;;;;;;5064168;28;20416;-95
2022/08/25 11:52:31;;;;;;;3.20;2.70;;;36.40;48.90;;;;;;5058776;28;20029;-96
2022/08/25 11:55:33;;;;;;;5.35;2.80;;;36.70;48.80;;;;;;5057905;28;20102;-92
2022/08/25 11:58:40;;;;;;;4.10;3.10;;;36.90;47.70;;;;;;5063101;28;20029;-94
2022/08/25 12:01:43;;;;;;;4.82;2.55;;;37.10;47.60;;;;;;5051726;28;20060;-93
2022/08/25 12:04:12;;;;;;;4.18;2.33;;;37.30;48.00;;;;;;5063195;28;20116;-94
2022/08/25 12:07:07;;;;;;;4.57;2.70;;;37.40;47.60;;;;;;5056247;28;20492;-92
2022/08/25 12:09:54;;;;;;;7.28;3.22;;;37.60;47.00;;;;;;5057738;28;20624;-96
2022/08/25 12:12:39;;;;;;;6.57;3.13;;;37.70;44.70;;;;;;5057286;28;20104;-94
2022/08/25 12:15:47;;;;;;;4.72;2.58;;;37.60;44.60;;;;;;5061038;28;20090;-95
2022/08/25 12:18:16;;;;;;;5.15;2.70;;;37.30;45.80;;;;;;5062066;28;20481;-96
2022/08/25 12:20:54;;;;;;;4.33;2.50;;;37.40;46.70;;;;;;5057841;28;20032;-94
2022/08/25 12:23:33;;;;;;;5.35;2.80;;;37.50;45.20;;;;;;5052498;28;20028;-92
2022/08/25 12:26:22;;;;;;;3.85;2.85;;;37.50;46.00;;;;;;5055088;28;20021;-95
2022/08/25 12:29:05;;;;;;;6.53;2.80;;;37.60;46.70;;;;;;5050714;28;20035;-95
2022/08/25 12:31:43;;;;;;;4.35;2.85;;;37.80;45.90;;;;;;5055110;28;20029;-95
2022/08/25 12:34:43;;;;;;;5.35;3.38;;;37.90;46.10;;;;;;5052531;28;20123;-92
2022/08/25 12:37:18;;;;;;;3.70;2.58;;;38.00;45.50;;;;;;5036869;28;20048;-93
2022/08/25 12:39:50;;;;;;;3.50;2.45;;;38.10;45.40;;;;;;5052190;28;20033;-96
2022/08/25 12:42:42;;;;;;;4.32;2.55;;;38.20;45.60;;;;;;5053924;28;20044;-92
2022/08/25 12:45:23;;;;;;;5.05;2.38;;;38.40;44.60;;;;;;5053741;28;20036;-95
2022/08/25 12:47:51;;;;;;;3.70;2.53;;;38.40;44.20;;;;;;5055746;28;20021;-94
2022/08/25 12:50:41;;;;;;;3.78;2.70;;;38.40;44.80;;;;;;5055694;28;20021;-96
2022/08/25 12:53:19;;;;;;;3.97;2.55;;;38.40;44.10;;;;;;5056160;28;20052;-96
2022/08/25 12:55:53;;;;;;;3.05;2.50;;;38.30;44.90;;;;;;5058111;28;20077;-92
2022/08/25 12:58:19;;;;;;;3.28;2.60;;;38.40;45.10;;;;;;5055450;28;20125;-94
2022/08/25 13:01:04;;;;;;;8.27;2.95;;;38.40;45.10;;;;;;5040678;28;20410;-94
2022/08/25 13:03:59;;;;;;;3.17;2.53;;;38.50;44.30;;;;;;5039477;28;20025;-96
2022/08/25 13:06:38;;;;;;;6.28;2.65;;;38.30;44.70;;;;;;5041285;28;20076;-92
2022/08/25 13:09:45;;;;;;;3.13;2.28;;;38.20;44.60;;;;;;5036275;28;20387;-91
2022/08/25 13:12:25;;;;;;;3.50;2.83;;;38.00;43.80;;;;;;5038121;28;20032;-91
2022/08/25 13:14:56;;;;;;;3.88;2.53;;;37.80;44.20;;;;;;5041254;28;20037;-94
2022/08/25 13:17:32;;;;;;;3.17;2.40;;;37.70;45.00;;;;;;5036479;28;20025;-94
2022/08/25 13:20:24;;;;;;;3.67;2.60;;;37.70;44.80;;;;;;5048334;28;20032;-92
2022/08/25 13:22:55;;;;;;;3.75;2.53;;;37.60;44.00;;;;;;5056102;28;20381;-89
2022/08/25 13:25:24;;;;;;;3.53;2.50;;;37.50;44.80;;;;;;5055582;28;20036;-91
2022/08/25 13:28:02;;;;;;;3.13;2.30;;;37.40;44.80;;;;;;5055021;28;20021;-92